sensor_id;sensor_type;location;lat;lon;timestamp;P1;durP1;ratioP1;P2;durP2;ratioP2
48363;SDS011;34170;54.364;18.582;2023-08-31T00:01:39;1.48;;;0.47;;
48363;SDS011;34170;54.364;18.582;2023-08-31T00:04:07;0.68;;;0.50;;
48363;SDS011;34170;54.364;18.582;2023-08-31T00:06:42;1.88;;;0.50;;
48363;SDS011;34170;54.364;18.582;2023-08-31T00:09:12;0.80;;;0.32;;
48363;SDS011;34170;54.364;18.582;2023-08-31T00:11:39;0.65;;;0.50;;
48363;SDS011;34170;54.364;18.582;2023-08-31T00:14:07;4.68;;;0.75;;
48363;SDS011;34170;54.364;18.582;2023-08-31T00:16:35;1.42;;;0.43;;
48363;SDS011;34170;54.364;18.582;2023-08-31T00:19:04;0.57;;;0.47;;
48363;SDS011;34170;54.364;18.582;2023-08-31T00:21:31;1.00;;;0.60;;
48363;SDS011;34170;54.364;18.582;2023-08-31T00:23:59;2.25;;;0.80;;
48363;SDS011;34170;54.364;18.582;2023-08-31T00:26:26;0.60;;;0.40;;
48363;SDS011;34170;54.364;18.582;2023-08-31T00:28:54;1.13;;;0.50;;
48363;SDS011;34170;54.364;18.582;2023-08-31T00:31:22;1.00;;;0.40;;
48363;SDS011;34170;54.364;18.582;2023-08-31T00:33:50;4.82;;;0.57;;
48363;SDS011;34170;54.364;18.582;2023-08-31T00:36:17;0.70;;;0.60;;
48363;SDS011;34170;54.364;18.582;2023-08-31T00:38:45;1.30;;;0.57;;
48363;SDS011;34170;54.364;18.582;2023-08-31T00:41:14;1.20;;;0.40;;
48363;SDS011;34170;54.364;18.582;2023-08-31T00:43:42;0.80;;;0.43;;
48363;SDS011;34170;54.364;18.582;2023-08-31T00:46:09;1.02;;;0.70;;
48363;SDS011;34170;54.364;18.582;2023-08-31T00:48:37;3.30;;;0.52;;
48363;SDS011;34170;54.364;18.582;2023-08-31T00:51:05;0.85;;;0.50;;
48363;SDS011;34170;54.364;18.582;2023-08-31T00:53:35;2.58;;;0.80;;
48363;SDS011;34170;54.364;18.582;2023-08-31T00:56:03;2.72;;;0.80;;
48363;SDS011;34170;54.364;18.582;2023-08-31T00:58:32;1.75;;;0.80;;
48363;SDS011;34170;54.364;18.582;2023-08-31T01:01:08;1.08;;;0.68;;
48363;SDS011;34170;54.364;18.582;2023-08-31T01:06:41;2.20;;;1.00;;
48363;SDS011;34170;54.364;18.582;2023-08-31T01:14:44;1.10;;;0.60;;
48363;SDS011;34170;54.364;18.582;2023-08-31T01:17:17;1.35;;;0.70;;
48363;SDS011;34170;54.364;18.582;2023-08-31T01:19:52;1.58;;;0.65;;
48363;SDS011;34170;54.364;18.582;2023-08-31T01:25:09;1.33;;;0.50;;
48363;SDS011;34170;54.364;18.582;2023-08-31T01:27:37;1.23;;;0.50;;
48363;SDS011;34170;54.364;18.582;2023-08-31T01:30:06;1.00;;;0.50;;
48363;SDS011;34170;54.364;18.582;2023-08-31T01:32:36;1.02;;;0.50;;
48363;SDS011;34170;54.364;18.582;2023-08-31T01:35:05;0.70;;;0.45;;
48363;SDS011;34170;54.364;18.582;2023-08-31T01:37:42;0.80;;;0.50;;
48363;SDS011;34170;54.364;18.582;2023-08-31T01:40:14;1.15;;;0.60;;
48363;SDS011;34170;54.364;18.582;2023-08-31T01:42:46;0.77;;;0.60;;
48363;SDS011;34170;54.364;18.582;2023-08-31T01:45:22;1.40;;;0.63;;
48363;SDS011;34170;54.364;18.582;2023-08-31T01:47:49;1.10;;;0.50;;
48363;SDS011;34170;54.364;18.582;2023-08-31T01:50:18;2.47;;;0.75;;
48363;SDS011;34170;54.364;18.582;2023-08-31T01:52:46;1.77;;;0.60;;
48363;SDS011;34170;54.364;18.582;2023-08-31T01:55:14;2.42;;;0.70;;
48363;SDS011;34170;54.364;18.582;2023-08-31T01:57:42;0.77;;;0.70;;
48363;SDS011;34170;54.364;18.582;2023-08-31T02:00:18;0.63;;;0.50;;
48363;SDS011;34170;54.364;18.582;2023-08-31T02:02:47;0.93;;;0.57;;
48363;SDS011;34170;54.364;18.582;2023-08-31T02:05:15;0.80;;;0.70;;
48363;SDS011;34170;54.364;18.582;2023-08-31T02:07:42;1.45;;;0.50;;
48363;SDS011;34170;54.364;18.582;2023-08-31T02:10:10;1.05;;;0.60;;
48363;SDS011;34170;54.364;18.582;2023-08-31T02:12:38;1.90;;;0.65;;
48363;SDS011;34170;54.364;18.582;2023-08-31T02:15:06;1.52;;;0.50;;
48363;SDS011;34170;54.364;18.582;2023-08-31T02:17:34;0.77;;;0.77;;
48363;SDS011;34170;54.364;18.582;2023-08-31T02:20:02;2.28;;;1.00;;
48363;SDS011;34170;54.364;18.582;2023-08-31T02:22:33;2.03;;;1.15;;
48363;SDS011;34170;54.364;18.582;2023-08-31T02:25:01;2.15;;;1.00;;
48363;SDS011;34170;54.364;18.582;2023-08-31T02:27:29;1.00;;;0.82;;
48363;SDS011;34170;54.364;18.582;2023-08-31T02:29:57;2.03;;;1.33;;
48363;SDS011;34170;54.364;18.582;2023-08-31T02:32:26;4.35;;;1.17;;
48363;SDS011;34170;54.364;18.582;2023-08-31T02:34:54;1.42;;;1.08;;
48363;SDS011;34170;54.364;18.582;2023-08-31T02:37:21;1.85;;;1.30;;
48363;SDS011;34170;54.364;18.582;2023-08-31T02:39:50;2.90;;;1.23;;
48363;SDS011;34170;54.364;18.582;2023-08-31T02:42:17;1.55;;;1.13;;
48363;SDS011;34170;54.364;18.582;2023-08-31T02:44:45;1.27;;;1.15;;
48363;SDS011;34170;54.364;18.582;2023-08-31T02:47:13;2.10;;;0.90;;
48363;SDS011;34170;54.364;18.582;2023-08-31T02:49:41;2.40;;;1.17;;
48363;SDS011;34170;54.364;18.582;2023-08-31T02:52:08;2.28;;;0.95;;
48363;SDS011;34170;54.364;18.582;2023-08-31T02:54:36;2.20;;;0.75;;
48363;SDS011;34170;54.364;18.582;2023-08-31T02:57:03;1.50;;;0.60;;
48363;SDS011;34170;54.364;18.582;2023-08-31T02:59:31;5.35;;;0.80;;
48363;SDS011;34170;54.364;18.582;2023-08-31T03:02:03;2.38;;;0.63;;
48363;SDS011;34170;54.364;18.582;2023-08-31T03:04:31;1.30;;;0.73;;
48363;SDS011;34170;54.364;18.582;2023-08-31T03:06:59;1.00;;;0.55;;
48363;SDS011;34170;54.364;18.582;2023-08-31T03:09:26;1.58;;;0.55;;
48363;SDS011;34170;54.364;18.582;2023-08-31T03:11:54;0.40;;;0.32;;
48363;SDS011;34170;54.364;18.582;2023-08-31T03:14:22;1.85;;;0.20;;
48363;SDS011;34170;54.364;18.582;2023-08-31T03:16:49;1.23;;;0.35;;
48363;SDS011;34170;54.364;18.582;2023-08-31T03:19:17;2.08;;;0.60;;
48363;SDS011;34170;54.364;18.582;2023-08-31T03:21:45;1.42;;;0.70;;
48363;SDS011;34170;54.364;18.582;2023-08-31T03:24:14;0.80;;;0.17;;
48363;SDS011;34170;54.364;18.582;2023-08-31T03:26:42;3.03;;;0.45;;
48363;SDS011;34170;54.364;18.582;2023-08-31T03:29:09;1.30;;;0.40;;
48363;SDS011;34170;54.364;18.582;2023-08-31T03:31:38;0.68;;;0.30;;
48363;SDS011;34170;54.364;18.582;2023-08-31T03:34:05;0.70;;;0.40;;
48363;SDS011;34170;54.364;18.582;2023-08-31T03:36:33;2.70;;;0.38;;
48363;SDS011;34170;54.364;18.582;2023-08-31T03:39:01;2.30;;;0.40;;
48363;SDS011;34170;54.364;18.582;2023-08-31T03:41:29;2.83;;;0.50;;
48363;SDS011;34170;54.364;18.582;2023-08-31T03:43:58;0.85;;;0.40;;
48363;SDS011;34170;54.364;18.582;2023-08-31T03:46:26;2.83;;;0.30;;
48363;SDS011;34170;54.364;18.582;2023-08-31T03:48:54;1.73;;;0.43;;
48363;SDS011;34170;54.364;18.582;2023-08-31T03:51:21;1.90;;;0.60;;
48363;SDS011;34170;54.364;18.582;2023-08-31T03:53:49;2.92;;;0.50;;
48363;SDS011;34170;54.364;18.582;2023-08-31T03:56:17;0.50;;;0.30;;
48363;SDS011;34170;54.364;18.582;2023-08-31T03:58:45;2.38;;;0.40;;
48363;SDS011;34170;54.364;18.582;2023-08-31T04:01:12;1.85;;;0.50;;
48363;SDS011;34170;54.364;18.582;2023-08-31T04:03:42;1.52;;;0.50;;
48363;SDS011;34170;54.364;18.582;2023-08-31T04:06:09;0.80;;;0.50;;
48363;SDS011;34170;54.364;18.582;2023-08-31T04:08:40;0.95;;;0.50;;
48363;SDS011;34170;54.364;18.582;2023-08-31T04:11:07;2.00;;;0.60;;
48363;SDS011;34170;54.364;18.582;2023-08-31T04:13:35;2.35;;;0.68;;
48363;SDS011;34170;54.364;18.582;2023-08-31T04:16:03;1.98;;;0.40;;
48363;SDS011;34170;54.364;18.582;2023-08-31T04:18:31;1.60;;;0.45;;
48363;SDS011;34170;54.364;18.582;2023-08-31T04:20:58;1.45;;;0.52;;
48363;SDS011;34170;54.364;18.582;2023-08-31T04:23:27;1.00;;;0.50;;
48363;SDS011;34170;54.364;18.582;2023-08-31T04:25:55;1.00;;;0.60;;
48363;SDS011;34170;54.364;18.582;2023-08-31T04:28:25;3.45;;;0.60;;
48363;SDS011;34170;54.364;18.582;2023-08-31T04:30:52;3.58;;;1.05;;
48363;SDS011;34170;54.364;18.582;2023-08-31T04:33:20;3.05;;;0.98;;
48363;SDS011;34170;54.364;18.582;2023-08-31T04:35:47;1.35;;;0.93;;
48363;SDS011;34170;54.364;18.582;2023-08-31T04:38:17;1.88;;;1.02;;
48363;SDS011;34170;54.364;18.582;2023-08-31T04:40:44;1.75;;;1.10;;
48363;SDS011;34170;54.364;18.582;2023-08-31T04:43:12;1.73;;;1.13;;
48363;SDS011;34170;54.364;18.582;2023-08-31T04:45:40;2.40;;;1.20;;
48363;SDS011;34170;54.364;18.582;2023-08-31T04:48:08;3.20;;;1.23;;
48363;SDS011;34170;54.364;18.582;2023-08-31T04:50:36;1.65;;;1.13;;
48363;SDS011;34170;54.364;18.582;2023-08-31T04:53:03;2.97;;;1.27;;
48363;SDS011;34170;54.364;18.582;2023-08-31T04:55:31;3.03;;;1.55;;
48363;SDS011;34170;54.364;18.582;2023-08-31T04:57:59;1.90;;;1.05;;
48363;SDS011;34170;54.364;18.582;2023-08-31T05:00:26;4.57;;;1.60;;
48363;SDS011;34170;54.364;18.582;2023-08-31T05:02:54;3.83;;;1.55;;
48363;SDS011;34170;54.364;18.582;2023-08-31T05:05:22;3.25;;;1.45;;
48363;SDS011;34170;54.364;18.582;2023-08-31T05:07:49;3.85;;;1.65;;
48363;SDS011;34170;54.364;18.582;2023-08-31T05:10:17;1.80;;;1.42;;
48363;SDS011;34170;54.364;18.582;2023-08-31T05:12:45;5.57;;;2.08;;
48363;SDS011;34170;54.364;18.582;2023-08-31T05:15:12;2.95;;;1.42;;
48363;SDS011;34170;54.364;18.582;2023-08-31T05:17:40;3.58;;;1.60;;
48363;SDS011;34170;54.364;18.582;2023-08-31T05:20:07;2.42;;;1.17;;
48363;SDS011;34170;54.364;18.582;2023-08-31T05:22:37;2.60;;;1.20;;
48363;SDS011;34170;54.364;18.582;2023-08-31T05:25:04;2.45;;;1.20;;
48363;SDS011;34170;54.364;18.582;2023-08-31T05:27:33;2.58;;;1.10;;
48363;SDS011;34170;54.364;18.582;2023-08-31T05:30:00;4.40;;;1.20;;
48363;SDS011;34170;54.364;18.582;2023-08-31T05:32:30;2.30;;;1.05;;
48363;SDS011;34170;54.364;18.582;2023-08-31T05:34:57;2.63;;;0.82;;
48363;SDS011;34170;54.364;18.582;2023-08-31T05:37:30;2.03;;;0.80;;
48363;SDS011;34170;54.364;18.582;2023-08-31T05:39:59;2.83;;;1.30;;
48363;SDS011;34170;54.364;18.582;2023-08-31T05:42:27;4.28;;;1.33;;
48363;SDS011;34170;54.364;18.582;2023-08-31T05:44:55;3.28;;;1.08;;
48363;SDS011;34170;54.364;18.582;2023-08-31T05:47:22;1.65;;;0.80;;
48363;SDS011;34170;54.364;18.582;2023-08-31T05:49:50;1.58;;;0.90;;
48363;SDS011;34170;54.364;18.582;2023-08-31T05:52:18;2.80;;;1.15;;
48363;SDS011;34170;54.364;18.582;2023-08-31T05:54:46;3.88;;;1.38;;
48363;SDS011;34170;54.364;18.582;2023-08-31T05:57:13;1.15;;;1.02;;
48363;SDS011;34170;54.364;18.582;2023-08-31T05:59:41;3.28;;;0.90;;
48363;SDS011;34170;54.364;18.582;2023-08-31T06:02:08;2.65;;;1.17;;
48363;SDS011;34170;54.364;18.582;2023-08-31T06:04:36;1.52;;;1.08;;
48363;SDS011;34170;54.364;18.582;2023-08-31T06:07:04;1.38;;;0.75;;
48363;SDS011;34170;54.364;18.582;2023-08-31T06:09:31;4.20;;;0.90;;
48363;SDS011;34170;54.364;18.582;2023-08-31T06:11:59;2.13;;;1.10;;
48363;SDS011;34170;54.364;18.582;2023-08-31T06:14:27;2.47;;;0.90;;
48363;SDS011;34170;54.364;18.582;2023-08-31T06:16:55;3.95;;;0.93;;
48363;SDS011;34170;54.364;18.582;2023-08-31T06:19:22;3.33;;;1.10;;
48363;SDS011;34170;54.364;18.582;2023-08-31T06:21:50;4.18;;;0.98;;
48363;SDS011;34170;54.364;18.582;2023-08-31T06:24:17;3.05;;;0.93;;
48363;SDS011;34170;54.364;18.582;2023-08-31T06:26:45;4.05;;;1.17;;
48363;SDS011;34170;54.364;18.582;2023-08-31T06:29:12;3.15;;;1.00;;
48363;SDS011;34170;54.364;18.582;2023-08-31T06:31:40;1.27;;;0.88;;
48363;SDS011;34170;54.364;18.582;2023-08-31T06:34:08;2.95;;;0.88;;
48363;SDS011;34170;54.364;18.582;2023-08-31T06:36:35;2.13;;;0.60;;
48363;SDS011;34170;54.364;18.582;2023-08-31T06:39:03;1.73;;;1.00;;
48363;SDS011;34170;54.364;18.582;2023-08-31T06:41:31;3.80;;;1.20;;
48363;SDS011;34170;54.364;18.582;2023-08-31T06:43:59;2.00;;;0.80;;
48363;SDS011;34170;54.364;18.582;2023-08-31T06:46:27;2.05;;;0.73;;
48363;SDS011;34170;54.364;18.582;2023-08-31T06:48:55;3.13;;;1.23;;
48363;SDS011;34170;54.364;18.582;2023-08-31T06:51:23;1.67;;;0.70;;
48363;SDS011;34170;54.364;18.582;2023-08-31T06:53:51;2.25;;;0.82;;
48363;SDS011;34170;54.364;18.582;2023-08-31T06:56:19;1.90;;;0.70;;
48363;SDS011;34170;54.364;18.582;2023-08-31T06:58:46;3.30;;;0.70;;
48363;SDS011;34170;54.364;18.582;2023-08-31T07:01:14;4.25;;;0.70;;
48363;SDS011;34170;54.364;18.582;2023-08-31T07:03:41;2.28;;;0.82;;
48363;SDS011;34170;54.364;18.582;2023-08-31T07:06:09;1.50;;;0.70;;
48363;SDS011;34170;54.364;18.582;2023-08-31T07:08:38;3.35;;;0.88;;
48363;SDS011;34170;54.364;18.582;2023-08-31T07:11:07;4.45;;;1.10;;
48363;SDS011;34170;54.364;18.582;2023-08-31T07:13:35;5.90;;;1.00;;
48363;SDS011;34170;54.364;18.582;2023-08-31T07:16:03;3.10;;;1.00;;
48363;SDS011;34170;54.364;18.582;2023-08-31T07:18:31;2.15;;;1.13;;
48363;SDS011;34170;54.364;18.582;2023-08-31T07:20:59;3.25;;;1.10;;
48363;SDS011;34170;54.364;18.582;2023-08-31T07:23:26;3.80;;;1.48;;
48363;SDS011;34170;54.364;18.582;2023-08-31T07:25:58;3.92;;;1.13;;
48363;SDS011;34170;54.364;18.582;2023-08-31T07:28:27;2.33;;;1.20;;
48363;SDS011;34170;54.364;18.582;2023-08-31T07:31:04;4.88;;;1.17;;
48363;SDS011;34170;54.364;18.582;2023-08-31T07:33:34;3.78;;;0.90;;
48363;SDS011;34170;54.364;18.582;2023-08-31T07:36:03;5.78;;;1.27;;
48363;SDS011;34170;54.364;18.582;2023-08-31T07:38:32;6.10;;;1.30;;
48363;SDS011;34170;54.364;18.582;2023-08-31T07:41:00;5.32;;;1.50;;
48363;SDS011;34170;54.364;18.582;2023-08-31T07:43:28;2.00;;;0.73;;
48363;SDS011;34170;54.364;18.582;2023-08-31T07:45:57;2.63;;;0.95;;
48363;SDS011;34170;54.364;18.582;2023-08-31T07:48:24;4.85;;;1.20;;
48363;SDS011;34170;54.364;18.582;2023-08-31T07:50:52;2.33;;;1.23;;
48363;SDS011;34170;54.364;18.582;2023-08-31T07:53:19;4.35;;;1.13;;
48363;SDS011;34170;54.364;18.582;2023-08-31T07:55:51;4.07;;;1.20;;
48363;SDS011;34170;54.364;18.582;2023-08-31T07:58:23;4.15;;;1.50;;
48363;SDS011;34170;54.364;18.582;2023-08-31T08:00:54;3.30;;;1.35;;
48363;SDS011;34170;54.364;18.582;2023-08-31T08:03:22;5.20;;;1.50;;
48363;SDS011;34170;54.364;18.582;2023-08-31T08:05:51;4.07;;;1.20;;
48363;SDS011;34170;54.364;18.582;2023-08-31T08:08:18;4.10;;;1.40;;
48363;SDS011;34170;54.364;18.582;2023-08-31T08:10:46;2.35;;;1.17;;
48363;SDS011;34170;54.364;18.582;2023-08-31T08:13:14;2.00;;;0.82;;
48363;SDS011;34170;54.364;18.582;2023-08-31T08:15:42;5.90;;;1.75;;
48363;SDS011;34170;54.364;18.582;2023-08-31T08:18:10;3.95;;;1.20;;
48363;SDS011;34170;54.364;18.582;2023-08-31T08:20:38;4.57;;;1.13;;
48363;SDS011;34170;54.364;18.582;2023-08-31T08:23:05;3.30;;;0.90;;
48363;SDS011;34170;54.364;18.582;2023-08-31T08:25:33;5.65;;;1.73;;
48363;SDS011;34170;54.364;18.582;2023-08-31T08:28:01;3.97;;;1.23;;
48363;SDS011;34170;54.364;18.582;2023-08-31T08:30:30;5.70;;;1.75;;
48363;SDS011;34170;54.364;18.582;2023-08-31T08:32:58;2.05;;;1.08;;
48363;SDS011;34170;54.364;18.582;2023-08-31T08:35:26;1.73;;;1.15;;
48363;SDS011;34170;54.364;18.582;2023-08-31T08:37:53;2.60;;;0.88;;
48363;SDS011;34170;54.364;18.582;2023-08-31T08:40:21;3.92;;;1.33;;
48363;SDS011;34170;54.364;18.582;2023-08-31T08:42:48;5.03;;;1.00;;
48363;SDS011;34170;54.364;18.582;2023-08-31T08:45:21;3.30;;;1.10;;
48363;SDS011;34170;54.364;18.582;2023-08-31T08:47:52;2.85;;;1.20;;
48363;SDS011;34170;54.364;18.582;2023-08-31T08:50:22;2.42;;;1.05;;
48363;SDS011;34170;54.364;18.582;2023-08-31T08:52:51;2.25;;;0.77;;
48363;SDS011;34170;54.364;18.582;2023-08-31T08:55:19;5.75;;;0.93;;
48363;SDS011;34170;54.364;18.582;2023-08-31T08:57:49;2.43;;;0.93;;
48363;SDS011;34170;54.364;18.582;2023-08-31T09:00:17;3.05;;;0.70;;
48363;SDS011;34170;54.364;18.582;2023-08-31T09:02:44;1.33;;;0.50;;
48363;SDS011;34170;54.364;18.582;2023-08-31T09:05:13;2.40;;;0.90;;
48363;SDS011;34170;54.364;18.582;2023-08-31T09:10:32;1.90;;;0.65;;
48363;SDS011;34170;54.364;18.582;2023-08-31T09:13:13;3.25;;;0.90;;
48363;SDS011;34170;54.364;18.582;2023-08-31T09:15:46;2.88;;;0.80;;
48363;SDS011;34170;54.364;18.582;2023-08-31T09:18:29;1.98;;;0.95;;
48363;SDS011;34170;54.364;18.582;2023-08-31T09:21:01;2.97;;;0.93;;
48363;SDS011;34170;54.364;18.582;2023-08-31T09:23:29;2.78;;;1.10;;
48363;SDS011;34170;54.364;18.582;2023-08-31T09:25:57;2.15;;;0.70;;
48363;SDS011;34170;54.364;18.582;2023-08-31T09:28:26;1.73;;;0.70;;
48363;SDS011;34170;54.364;18.582;2023-08-31T09:31:07;2.38;;;0.93;;
48363;SDS011;34170;54.364;18.582;2023-08-31T09:33:36;1.80;;;0.77;;
48363;SDS011;34170;54.364;18.582;2023-08-31T09:36:06;1.58;;;0.90;;
48363;SDS011;34170;54.364;18.582;2023-08-31T09:38:44;1.33;;;0.52;;
48363;SDS011;34170;54.364;18.582;2023-08-31T09:41:12;1.73;;;0.70;;
48363;SDS011;34170;54.364;18.582;2023-08-31T09:43:42;4.55;;;0.95;;
48363;SDS011;34170;54.364;18.582;2023-08-31T09:46:10;2.47;;;1.05;;
48363;SDS011;34170;54.364;18.582;2023-08-31T09:48:38;2.17;;;0.80;;
48363;SDS011;34170;54.364;18.582;2023-08-31T09:51:12;1.47;;;0.80;;
48363;SDS011;34170;54.364;18.582;2023-08-31T09:53:44;2.53;;;0.70;;
48363;SDS011;34170;54.364;18.582;2023-08-31T09:56:18;1.98;;;0.77;;
48363;SDS011;34170;54.364;18.582;2023-08-31T09:58:49;1.90;;;1.00;;
48363;SDS011;34170;54.364;18.582;2023-08-31T10:01:17;2.42;;;0.68;;
48363;SDS011;34170;54.364;18.582;2023-08-31T10:03:56;3.28;;;0.57;;
48363;SDS011;34170;54.364;18.582;2023-08-31T10:06:24;2.53;;;0.90;;
48363;SDS011;34170;54.364;18.582;2023-08-31T10:08:53;4.53;;;0.90;;
48363;SDS011;34170;54.364;18.582;2023-08-31T10:11:21;3.45;;;0.88;;
48363;SDS011;34170;54.364;18.582;2023-08-31T10:13:55;4.90;;;0.88;;
48363;SDS011;34170;54.364;18.582;2023-08-31T10:16:23;1.98;;;0.60;;
48363;SDS011;34170;54.364;18.582;2023-08-31T10:18:56;2.10;;;0.60;;
48363;SDS011;34170;54.364;18.582;2023-08-31T10:21:24;2.10;;;0.70;;
48363;SDS011;34170;54.364;18.582;2023-08-31T10:23:52;3.03;;;0.77;;
48363;SDS011;34170;54.364;18.582;2023-08-31T10:26:23;1.75;;;0.80;;
48363;SDS011;34170;54.364;18.582;2023-08-31T10:28:52;2.28;;;1.00;;
48363;SDS011;34170;54.364;18.582;2023-08-31T10:31:20;2.63;;;0.77;;
48363;SDS011;34170;54.364;18.582;2023-08-31T10:33:54;2.08;;;0.70;;
48363;SDS011;34170;54.364;18.582;2023-08-31T10:36:33;2.65;;;0.80;;
48363;SDS011;34170;54.364;18.582;2023-08-31T10:39:15;1.90;;;0.63;;
48363;SDS011;34170;54.364;18.582;2023-08-31T10:41:57;2.00;;;0.98;;
48363;SDS011;34170;54.364;18.582;2023-08-31T10:44:30;1.35;;;0.63;;
48363;SDS011;34170;54.364;18.582;2023-08-31T10:47:04;1.88;;;0.70;;
48363;SDS011;34170;54.364;18.582;2023-08-31T10:49:32;1.67;;;0.70;;
48363;SDS011;34170;54.364;18.582;2023-08-31T10:52:16;0.90;;;0.50;;
48363;SDS011;34170;54.364;18.582;2023-08-31T10:55:05;2.10;;;0.70;;
48363;SDS011;34170;54.364;18.582;2023-08-31T10:57:33;2.58;;;0.80;;
48363;SDS011;34170;54.364;18.582;2023-08-31T11:00:03;2.47;;;0.73;;
48363;SDS011;34170;54.364;18.582;2023-08-31T11:05:10;3.05;;;0.70;;
48363;SDS011;34170;54.364;18.582;2023-08-31T11:07:40;2.03;;;0.77;;
48363;SDS011;34170;54.364;18.582;2023-08-31T11:10:19;2.47;;;0.80;;
48363;SDS011;34170;54.364;18.582;2023-08-31T11:12:49;2.40;;;0.63;;
48363;SDS011;34170;54.364;18.582;2023-08-31T11:15:20;2.65;;;0.70;;
48363;SDS011;34170;54.364;18.582;2023-08-31T11:17:52;2.03;;;0.63;;
48363;SDS011;34170;54.364;18.582;2023-08-31T11:20:21;1.40;;;0.70;;
48363;SDS011;34170;54.364;18.582;2023-08-31T11:22:50;2.60;;;0.80;;
48363;SDS011;34170;54.364;18.582;2023-08-31T11:25:21;2.95;;;0.85;;
48363;SDS011;34170;54.364;18.582;2023-08-31T11:27:56;2.45;;;1.00;;
48363;SDS011;34170;54.364;18.582;2023-08-31T11:30:27;1.60;;;0.70;;
48363;SDS011;34170;54.364;18.582;2023-08-31T11:33:08;3.65;;;0.75;;
48363;SDS011;34170;54.364;18.582;2023-08-31T11:35:39;2.38;;;0.65;;
48363;SDS011;34170;54.364;18.582;2023-08-31T11:38:09;1.63;;;0.80;;
48363;SDS011;34170;54.364;18.582;2023-08-31T11:40:36;1.73;;;0.68;;
48363;SDS011;34170;54.364;18.582;2023-08-31T11:43:05;1.45;;;0.90;;
48363;SDS011;34170;54.364;18.582;2023-08-31T11:45:35;1.60;;;0.90;;
48363;SDS011;34170;54.364;18.582;2023-08-31T11:48:05;2.03;;;1.10;;
48363;SDS011;34170;54.364;18.582;2023-08-31T11:50:34;1.60;;;1.00;;
48363;SDS011;34170;54.364;18.582;2023-08-31T11:53:02;2.40;;;1.20;;
48363;SDS011;34170;54.364;18.582;2023-08-31T11:55:30;2.15;;;0.88;;
48363;SDS011;34170;54.364;18.582;2023-08-31T11:58:00;1.73;;;0.93;;
48363;SDS011;34170;54.364;18.582;2023-08-31T12:00:28;2.28;;;1.00;;
48363;SDS011;34170;54.364;18.582;2023-08-31T12:03:00;3.55;;;1.08;;
48363;SDS011;34170;54.364;18.582;2023-08-31T12:05:43;1.20;;;1.00;;
48363;SDS011;34170;54.364;18.582;2023-08-31T12:08:13;1.98;;;0.98;;
48363;SDS011;34170;54.364;18.582;2023-08-31T12:10:41;2.88;;;0.82;;
48363;SDS011;34170;54.364;18.582;2023-08-31T12:13:10;2.17;;;1.10;;
48363;SDS011;34170;54.364;18.582;2023-08-31T12:15:38;2.03;;;0.93;;
48363;SDS011;34170;54.364;18.582;2023-08-31T12:18:10;1.27;;;0.82;;
48363;SDS011;34170;54.364;18.582;2023-08-31T12:20:57;2.33;;;0.98;;
48363;SDS011;34170;54.364;18.582;2023-08-31T12:23:25;2.05;;;0.85;;
48363;SDS011;34170;54.364;18.582;2023-08-31T12:25:53;1.85;;;0.77;;
48363;SDS011;34170;54.364;18.582;2023-08-31T12:28:22;2.00;;;0.80;;
48363;SDS011;34170;54.364;18.582;2023-08-31T12:30:51;2.20;;;1.15;;
48363;SDS011;34170;54.364;18.582;2023-08-31T12:33:20;2.78;;;1.48;;
48363;SDS011;34170;54.364;18.582;2023-08-31T12:35:48;2.05;;;0.85;;
48363;SDS011;34170;54.364;18.582;2023-08-31T12:38:17;3.50;;;0.98;;
48363;SDS011;34170;54.364;18.582;2023-08-31T12:40:45;2.58;;;1.27;;
48363;SDS011;34170;54.364;18.582;2023-08-31T12:43:13;1.23;;;0.85;;
48363;SDS011;34170;54.364;18.582;2023-08-31T12:45:41;4.72;;;1.20;;
48363;SDS011;34170;54.364;18.582;2023-08-31T12:48:09;6.43;;;1.63;;
48363;SDS011;34170;54.364;18.582;2023-08-31T12:50:37;3.67;;;1.10;;
48363;SDS011;34170;54.364;18.582;2023-08-31T12:53:05;2.63;;;1.13;;
48363;SDS011;34170;54.364;18.582;2023-08-31T12:55:32;3.85;;;1.08;;
48363;SDS011;34170;54.364;18.582;2023-08-31T12:58:00;3.17;;;0.80;;
48363;SDS011;34170;54.364;18.582;2023-08-31T13:00:27;1.23;;;0.93;;
48363;SDS011;34170;54.364;18.582;2023-08-31T13:02:55;1.80;;;0.77;;
48363;SDS011;34170;54.364;18.582;2023-08-31T13:05:22;2.63;;;1.13;;
48363;SDS011;34170;54.364;18.582;2023-08-31T13:07:50;1.50;;;1.17;;
48363;SDS011;34170;54.364;18.582;2023-08-31T13:10:18;1.13;;;0.93;;
48363;SDS011;34170;54.364;18.582;2023-08-31T13:12:45;2.30;;;1.13;;
48363;SDS011;34170;54.364;18.582;2023-08-31T13:15:13;3.35;;;1.20;;
48363;SDS011;34170;54.364;18.582;2023-08-31T13:17:41;1.52;;;1.10;;
48363;SDS011;34170;54.364;18.582;2023-08-31T13:20:09;1.88;;;0.93;;
48363;SDS011;34170;54.364;18.582;2023-08-31T13:22:37;2.70;;;1.20;;
48363;SDS011;34170;54.364;18.582;2023-08-31T13:25:04;1.30;;;1.20;;
48363;SDS011;34170;54.364;18.582;2023-08-31T13:27:32;2.65;;;1.25;;
48363;SDS011;34170;54.364;18.582;2023-08-31T13:30:03;2.05;;;1.50;;
48363;SDS011;34170;54.364;18.582;2023-08-31T13:35:01;2.58;;;1.42;;
48363;SDS011;34170;54.364;18.582;2023-08-31T13:37:30;13.02;;;1.90;;
48363;SDS011;34170;54.364;18.582;2023-08-31T13:39:57;4.43;;;1.60;;
48363;SDS011;34170;54.364;18.582;2023-08-31T13:42:25;4.70;;;1.52;;
48363;SDS011;34170;54.364;18.582;2023-08-31T13:44:52;3.25;;;1.80;;
48363;SDS011;34170;54.364;18.582;2023-08-31T13:47:20;4.40;;;2.00;;
48363;SDS011;34170;54.364;18.582;2023-08-31T13:49:47;4.03;;;1.95;;
48363;SDS011;34170;54.364;18.582;2023-08-31T13:52:15;4.00;;;2.17;;
48363;SDS011;34170;54.364;18.582;2023-08-31T13:54:43;3.35;;;2.05;;
48363;SDS011;34170;54.364;18.582;2023-08-31T13:57:11;2.78;;;2.20;;
48363;SDS011;34170;54.364;18.582;2023-08-31T13:59:44;3.65;;;2.03;;
48363;SDS011;34170;54.364;18.582;2023-08-31T14:02:12;5.82;;;2.80;;
48363;SDS011;34170;54.364;18.582;2023-08-31T14:04:39;3.35;;;2.15;;
48363;SDS011;34170;54.364;18.582;2023-08-31T14:07:07;4.65;;;2.70;;
48363;SDS011;34170;54.364;18.582;2023-08-31T14:09:34;4.68;;;3.05;;
48363;SDS011;34170;54.364;18.582;2023-08-31T14:12:02;5.32;;;3.42;;
48363;SDS011;34170;54.364;18.582;2023-08-31T14:14:30;7.30;;;3.22;;
48363;SDS011;34170;54.364;18.582;2023-08-31T14:16:58;4.07;;;2.88;;
48363;SDS011;34170;54.364;18.582;2023-08-31T14:19:25;3.63;;;2.75;;
48363;SDS011;34170;54.364;18.582;2023-08-31T14:21:53;6.22;;;3.10;;
48363;SDS011;34170;54.364;18.582;2023-08-31T14:24:21;3.88;;;2.90;;
48363;SDS011;34170;54.364;18.582;2023-08-31T14:26:49;3.33;;;2.80;;
48363;SDS011;34170;54.364;18.582;2023-08-31T14:29:18;8.60;;;3.25;;
48363;SDS011;34170;54.364;18.582;2023-08-31T14:31:46;4.60;;;3.10;;
48363;SDS011;34170;54.364;18.582;2023-08-31T14:34:13;5.35;;;2.90;;
48363;SDS011;34170;54.364;18.582;2023-08-31T14:36:41;3.63;;;2.90;;
48363;SDS011;34170;54.364;18.582;2023-08-31T14:39:09;4.53;;;3.50;;
48363;SDS011;34170;54.364;18.582;2023-08-31T14:41:37;5.00;;;2.80;;
48363;SDS011;34170;54.364;18.582;2023-08-31T14:44:04;4.82;;;3.47;;
48363;SDS011;34170;54.364;18.582;2023-08-31T14:46:32;4.25;;;3.25;;
48363;SDS011;34170;54.364;18.582;2023-08-31T14:49:00;6.40;;;3.80;;
48363;SDS011;34170;54.364;18.582;2023-08-31T14:51:27;5.05;;;3.13;;
48363;SDS011;34170;54.364;18.582;2023-08-31T14:53:55;4.55;;;3.90;;
48363;SDS011;34170;54.364;18.582;2023-08-31T14:56:23;3.92;;;3.25;;
48363;SDS011;34170;54.364;18.582;2023-08-31T14:58:50;4.40;;;3.33;;
48363;SDS011;34170;54.364;18.582;2023-08-31T15:01:18;4.63;;;3.25;;
48363;SDS011;34170;54.364;18.582;2023-08-31T15:03:46;4.07;;;3.45;;